Time;durP1;ratioP1;P1;durP2;ratioP2;P2;SDS_P1;SDS_P2;PMS_P1;PMS_P2;Temp;Humidity;BMP_temperature;BMP_pressure;BME280_temperature;BME280_humidity;BME280_pressure;Samples;Min_cycle;Max_cycle;Signal;HPM_P1;HPM_P2
2022/08/23 00:01:41;;;;;;;8.75;4.20;;;18.00;99.90;;;;;;5057097;28;20037;-72
2022/08/23 00:04:13;;;;;;;8.18;4.03;;;17.90;99.90;;;;;;5061202;28;20048;-73
2022/08/23 00:06:41;;;;;;;7.18;3.90;;;17.90;99.90;;;;;;5053304;28;20075;-72
2022/08/23 00:09:07;;;;;;;8.68;4.13;;;17.90;99.90;;;;;;5085068;28;20040;-73
2022/08/23 00:11:43;;;;;;;6.97;3.30;;;17.90;99.90;;;;;;5061474;28;20486;-73
2022/08/23 00:14:17;;;;;;;6.13;3.90;;;17.90;99.90;;;;;;5067501;28;20101;-73
2022/08/23 00:16:44;;;;;;;9.20;3.95;;;17.90;99.90;;;;;;5072467;28;20047;-73
2022/08/23 00:19:12;;;;;;;7.07;3.60;;;17.90;99.90;;;;;;5071763;28;20554;-73
2022/08/23 00:21:39;;;;;;;7.22;4.53;;;17.80;99.90;;;;;;5083198;28;20039;-73
2022/08/23 00:24:07;;;;;;;9.75;4.43;;;17.80;99.90;;;;;;5074461;28;20032;-73
2022/08/23 00:26:53;;;;;;;8.68;4.20;;;17.80;99.90;;;;;;5070600;28;20039;-74
2022/08/23 00:29:20;;;;;;;9.07;4.20;;;17.80;99.90;;;;;;5091770;28;20040;-73
2022/08/23 00:31:45;;;;;;;4.38;2.53;;;17.70;99.90;;;;;;5092345;28;20054;-72
2022/08/23 00:34:11;;;;;;;3.95;1.92;;;17.70;99.90;;;;;;5069116;28;20529;-73
2022/08/23 00:36:38;;;;;;;5.32;2.88;;;17.70;99.90;;;;;;5073062;28;20043;-73
2022/08/23 00:39:04;;;;;;;6.75;3.60;;;17.60;99.90;;;;;;5068985;28;20052;-73
2022/08/23 00:41:31;;;;;;;4.32;3.67;;;17.50;99.90;;;;;;5072607;28;20102;-73
2022/08/23 00:49:34;;;;;;;6.43;2.67;;;17.40;99.90;;;;;;5093769;28;20044;-73
2022/08/23 00:52:08;;;;;;;4.90;3.30;;;17.40;99.90;;;;;;5066117;28;20422;-72
2022/08/23 00:54:36;;;;;;;4.10;3.10;;;17.40;99.90;;;;;;5076575;28;20048;-73
2022/08/23 00:57:07;;;;;;;3.50;3.20;;;17.40;99.90;;;;;;5054394;28;20044;-72
2022/08/23 00:59:33;;;;;;;8.93;4.00;;;17.40;99.90;;;;;;5075149;28;20043;-73
2022/08/23 01:02:00;;;;;;;7.78;4.68;;;17.30;99.90;;;;;;5093740;28;20048;-73
2022/08/23 01:04:33;;;;;;;7.57;4.57;;;17.30;99.90;;;;;;5075268;28;20039;-73
2022/08/23 01:07:07;;;;;;;10.23;4.18;;;17.30;99.90;;;;;;5055223;28;20063;-73
2022/08/23 01:09:55;;;;;;;7.78;4.72;;;17.40;99.90;;;;;;5091492;28;20048;-72
2022/08/23 01:12:46;;;;;;;10.10;4.60;;;17.30;99.90;;;;;;5061684;28;20048;-73
2022/08/23 01:15:38;;;;;;;6.43;4.72;;;17.30;99.90;;;;;;5075333;28;20135;-71
2022/08/23 01:18:14;;;;;;;8.95;5.30;;;17.30;99.90;;;;;;5074356;28;20127;-73
2022/08/23 01:20:54;;;;;;;8.65;4.70;;;17.30;99.90;;;;;;5074895;28;20131;-73
2022/08/23 01:23:30;;;;;;;7.68;5.00;;;17.30;99.90;;;;;;5071195;28;20036;-72
2022/08/23 01:25:56;;;;;;;8.63;5.28;;;17.30;99.90;;;;;;5056617;28;20094;-73
2022/08/23 01:28:22;;;;;;;9.60;5.95;;;17.20;99.90;;;;;;5072881;28;20048;-73
2022/08/23 01:30:48;;;;;;;11.85;6.05;;;17.20;99.90;;;;;;5074660;28;20637;-73
2022/08/23 01:33:14;;;;;;;7.53;6.43;;;17.20;99.90;;;;;;5087640;28;20051;-73
2022/08/23 01:35:47;;;;;;;10.95;6.40;;;17.20;99.90;;;;;;5075099;28;20505;-72
2022/08/23 01:38:14;;;;;;;9.55;5.95;;;17.20;99.90;;;;;;5074778;28;20529;-73
2022/08/23 01:40:42;;;;;;;12.90;5.80;;;17.20;99.90;;;;;;5074493;28;20123;-73
2022/08/23 01:43:09;;;;;;;7.53;5.93;;;17.20;99.90;;;;;;5063968;28;20047;-72
2022/08/23 01:45:35;;;;;;;7.97;5.90;;;17.20;99.90;;;;;;5092939;28;20079;-72
2022/08/23 01:48:01;;;;;;;7.30;4.90;;;17.20;99.90;;;;;;5074448;28;20047;-72
2022/08/23 01:50:28;;;;;;;4.18;3.30;;;17.10;99.90;;;;;;5074434;28;20805;-72
2022/08/23 01:52:53;;;;;;;8.90;6.43;;;17.10;99.90;;;;;;5092612;28;20093;-72
2022/08/23 01:55:20;;;;;;;6.90;4.38;;;17.10;99.90;;;;;;5063064;28;20487;-72
2022/08/23 01:57:49;;;;;;;5.93;4.28;;;17.00;99.90;;;;;;5054402;28;20036;-73
2022/08/23 02:00:15;;;;;;;5.53;2.75;;;17.00;99.90;;;;;;5056601;28;20047;-73
2022/08/23 02:02:41;;;;;;;3.28;2.80;;;17.00;99.90;;;;;;5074469;28;20044;-71
2022/08/23 02:05:09;;;;;;;3.58;1.80;;;17.00;99.90;;;;;;5062888;28;20040;-72
2022/08/23 02:07:35;;;;;;;4.38;2.20;;;16.90;99.90;;;;;;5067536;28;20044;-73
2022/08/23 02:10:00;;;;;;;2.75;2.50;;;16.90;99.90;;;;;;5053850;28;20054;-72
2022/08/23 02:12:26;;;;;;;2.90;2.00;;;16.80;99.90;;;;;;5054286;28;20442;-73
2022/08/23 02:14:52;;;;;;;7.15;4.78;;;16.80;99.90;;;;;;5064816;28;20486;-72
2022/08/23 02:17:18;;;;;;;5.10;2.90;;;16.70;99.90;;;;;;5061924;28;20067;-72
2022/08/23 02:19:44;;;;;;;4.32;2.55;;;16.70;99.90;;;;;;5073896;28;20406;-72
2022/08/23 02:22:10;;;;;;;1.80;1.70;;;16.70;99.90;;;;;;5073864;28;20036;-73
2022/08/23 02:24:40;;;;;;;2.53;2.20;;;16.60;99.90;;;;;;5072619;28;20051;-71
2022/08/23 02:27:06;;;;;;;1.95;1.70;;;16.60;99.90;;;;;;5072207;28;20044;-73
2022/08/23 02:29:34;;;;;;;6.40;3.85;;;16.50;99.90;;;;;;5080541;28;20117;-72
2022/08/23 02:32:00;;;;;;;6.45;4.72;;;16.50;99.90;;;;;;5073900;28;20044;-72
2022/08/23 02:34:29;;;;;;;5.63;4.03;;;16.60;99.90;;;;;;5070878;28;20063;-73
2022/08/23 02:36:55;;;;;;;2.25;1.73;;;16.60;99.90;;;;;;5054087;28;20111;-72
2022/08/23 02:39:20;;;;;;;4.03;3.20;;;16.50;99.90;;;;;;5056862;28;20043;-73
2022/08/23 02:41:46;;;;;;;3.85;3.55;;;16.50;99.90;;;;;;5073920;28;20044;-72
2022/08/23 02:44:12;;;;;;;5.57;4.93;;;16.50;99.90;;;;;;5088253;28;20044;-73
2022/08/23 02:46:39;;;;;;;7.13;5.32;;;16.50;99.90;;;;;;5064781;28;20040;-72
2022/08/23 02:49:06;;;;;;;5.57;2.65;;;16.50;99.90;;;;;;5053241;28;20048;-72
2022/08/23 02:51:32;;;;;;;1.98;1.27;;;16.50;99.90;;;;;;5079416;28;20072;-72
2022/08/23 02:53:57;;;;;;;1.40;1.30;;;16.40;99.90;;;;;;5073778;28;20105;-73
2022/08/23 02:56:23;;;;;;;2.17;1.70;;;16.30;99.90;;;;;;5073928;28;20105;-73
2022/08/23 02:58:50;;;;;;;3.22;1.90;;;16.20;99.90;;;;;;5072436;28;20045;-72
2022/08/23 03:01:22;;;;;;;3.05;2.75;;;16.20;99.90;;;;;;5062435;28;20040;-73
2022/08/23 03:03:47;;;;;;;6.53;4.28;;;16.20;99.90;;;;;;5058708;28;20039;-72
2022/08/23 03:06:15;;;;;;;6.15;3.35;;;16.20;99.90;;;;;;5073571;28;20036;-72
2022/08/23 03:08:41;;;;;;;4.78;3.97;;;16.20;99.90;;;;;;5072664;28;20067;-73
2022/08/23 03:11:13;;;;;;;5.85;3.60;;;16.20;99.90;;;;;;5080857;28;20380;-71
2022/08/23 03:13:40;;;;;;;4.07;3.27;;;16.20;99.90;;;;;;5078483;28;20036;-73
2022/08/23 03:16:07;;;;;;;5.30;4.80;;;16.20;99.90;;;;;;5073509;28;20047;-73
2022/08/23 03:18:34;;;;;;;6.93;6.07;;;16.20;99.90;;;;;;5065695;28;20044;-73
2022/08/23 03:21:00;;;;;;;6.68;5.50;;;16.20;99.90;;;;;;5074412;28;20090;-73
2022/08/23 03:23:26;;;;;;;5.43;4.60;;;16.30;99.90;;;;;;5079584;28;20024;-73
2022/08/23 03:25:52;;;;;;;6.57;4.93;;;16.30;99.90;;;;;;5077100;28;20044;-72
2022/08/23 03:28:19;;;;;;;6.88;4.57;;;16.20;99.90;;;;;;5081185;28;20043;-72
2022/08/23 03:30:45;;;;;;;7.40;6.20;;;16.20;99.90;;;;;;5088048;28;20044;-72
2022/08/23 03:33:10;;;;;;;9.50;6.47;;;16.20;99.90;;;;;;5094411;28;20090;-73
2022/08/23 03:35:36;;;;;;;9.98;6.55;;;16.20;99.90;;;;;;5086950;28;20127;-73
2022/08/23 03:38:02;;;;;;;7.97;5.95;;;16.20;99.90;;;;;;5074055;28;20094;-73
2022/08/23 03:40:27;;;;;;;9.40;6.15;;;16.20;99.90;;;;;;5087963;28;20045;-73
2022/08/23 03:42:53;;;;;;;9.02;5.85;;;16.20;99.90;;;;;;5078761;28;20044;-72
2022/08/23 03:45:19;;;;;;;5.47;4.72;;;16.20;99.90;;;;;;5090835;28;20068;-73
2022/08/23 03:47:45;;;;;;;2.72;1.77;;;16.20;99.90;;;;;;5087355;28;20047;-73
2022/08/23 03:50:10;;;;;;;0.88;0.80;;;16.20;99.90;;;;;;5073533;28;20040;-73
2022/08/23 03:52:36;;;;;;;1.30;1.20;;;16.10;99.90;;;;;;5082357;28;20089;-73
2022/08/23 03:55:02;;;;;;;2.00;1.90;;;15.90;99.90;;;;;;5094115;28;20105;-73
2022/08/23 03:57:28;;;;;;;1.80;1.70;;;15.70;99.90;;;;;;5086075;28;20052;-72
2022/08/23 03:59:54;;;;;;;1.75;1.40;;;15.50;99.90;;;;;;5087301;28;20051;-73
2022/08/23 04:02:19;;;;;;;1.50;1.40;;;15.40;99.90;;;;;;5078856;28;20124;-73
2022/08/23 04:04:45;;;;;;;5.47;1.38;;;15.30;99.90;;;;;;5098622;28;20085;-73
2022/08/23 04:07:11;;;;;;;1.60;1.50;;;15.20;99.90;;;;;;5078686;28;20044;-72
2022/08/23 04:09:37;;;;;;;1.40;1.40;;;15.10;99.90;;;;;;5089859;28;20542;-73
2022/08/23 04:12:03;;;;;;;2.00;1.90;;;15.10;99.90;;;;;;5077726;28;20555;-72
2022/08/23 04:14:29;;;;;;;2.75;2.55;;;15.10;99.90;;;;;;5094187;28;20036;-73
2022/08/23 04:16:54;;;;;;;3.20;1.88;;;15.10;99.90;;;;;;5071561;28;20621;-73
2022/08/23 04:19:20;;;;;;;1.70;1.60;;;15.20;99.90;;;;;;5066840;28;20055;-73
2022/08/23 04:21:50;;;;;;;2.38;1.90;;;15.20;99.90;;;;;;5076488;28;20105;-73
2022/08/23 04:24:16;;;;;;;2.22;1.70;;;15.20;99.90;;;;;;5067510;28;20608;-73
2022/08/23 04:26:42;;;;;;;4.82;2.30;;;15.30;99.90;;;;;;5046397;28;20532;-73
2022/08/23 04:29:07;;;;;;;2.75;2.55;;;15.30;99.90;;;;;;5060915;28;20039;-73
2022/08/23 04:31:34;;;;;;;3.13;2.30;;;15.30;99.90;;;;;;5073129;28;20135;-73
2022/08/23 04:34:00;;;;;;;3.00;2.80;;;15.30;99.90;;;;;;5067458;28;20076;-73
2022/08/23 04:36:30;;;;;;;6.63;4.10;;;15.30;99.90;;;;;;5053998;28;20040;-73
2022/08/23 04:38:56;;;;;;;3.83;3.53;;;15.30;99.90;;;;;;5054927;28;20511;-73
2022/08/23 04:44:06;;;;;;;4.03;3.40;;;15.30;99.90;;;;;;5055827;28;20423;-73
2022/08/23 04:46:31;;;;;;;2.90;2.58;;;15.40;99.90;;;;;;5039380;28;20044;-73
2022/08/23 04:48:58;;;;;;;6.10;3.58;;;15.40;99.90;;;;;;5059936;28;20040;-73
2022/08/23 04:51:24;;;;;;;6.22;4.07;;;15.40;99.90;;;;;;5094066;28;20421;-72
2022/08/23 04:53:49;;;;;;;3.58;3.28;;;15.50;99.90;;;;;;5075761;28;20109;-73
2022/08/23 04:56:15;;;;;;;3.60;3.25;;;15.50;99.90;;;;;;5072690;28;20064;-73
2022/08/23 04:58:41;;;;;;;4.28;2.58;;;15.50;99.90;;;;;;5071731;28;20040;-71
2022/08/23 05:01:09;;;;;;;3.53;3.22;;;15.50;99.90;;;;;;5072691;28;20037;-73
2022/08/23 05:03:35;;;;;;;5.70;3.50;;;15.50;99.90;;;;;;5072465;28;20124;-73
2022/08/23 05:06:03;;;;;;;4.60;4.22;;;15.60;99.90;;;;;;5070796;28;20415;-73
2022/08/23 05:08:30;;;;;;;5.70;4.45;;;15.60;99.90;;;;;;5087250;28;20067;-73
2022/08/23 05:11:02;;;;;;;6.43;4.18;;;15.60;99.90;;;;;;5055181;28;20548;-73
2022/08/23 05:13:28;;;;;;;4.10;3.63;;;15.70;99.90;;;;;;5062890;28;20077;-73
2022/08/23 05:15:54;;;;;;;10.38;5.78;;;15.70;99.90;;;;;;5093607;28;20439;-72
2022/08/23 05:18:20;;;;;;;9.88;6.63;;;15.70;99.90;;;;;;5075314;28;20137;-73
2022/08/23 05:20:46;;;;;;;10.13;6.80;;;15.80;99.90;;;;;;5075141;28;20035;-73
2022/08/23 05:23:12;;;;;;;8.90;8.00;;;15.80;99.90;;;;;;5070049;28;20587;-73
2022/08/23 05:25:50;;;;;;;9.35;8.25;;;15.90;99.90;;;;;;5072368;28;20115;-73
2022/08/23 05:28:20;;;;;;;12.20;10.98;;;15.90;99.90;;;;;;5075231;28;20055;-73
2022/08/23 05:30:58;;;;;;;11.15;10.00;;;16.00;99.90;;;;;;5092219;28;20130;-73
2022/08/23 05:33:24;;;;;;;15.50;10.38;;;16.00;99.90;;;;;;5058308;28;20047;-73
2022/08/23 05:35:50;;;;;;;10.88;8.95;;;16.10;99.90;;;;;;5058823;28;20048;-73
2022/08/23 05:38:16;;;;;;;11.02;9.88;;;16.10;99.90;;;;;;5074813;28;20051;-73
2022/08/23 05:40:42;;;;;;;12.00;10.27;;;16.20;99.90;;;;;;5064969;28;20033;-73
2022/08/23 05:43:08;;;;;;;11.95;10.70;;;16.20;99.90;;;;;;5057707;28;20482;-73
2022/08/23 05:45:33;;;;;;;12.68;11.20;;;16.30;99.90;;;;;;5060522;28;20509;-73
2022/08/23 05:47:59;;;;;;;13.20;11.82;;;16.30;99.90;;;;;;5054847;28;20567;-73
2022/08/23 05:50:25;;;;;;;15.50;12.98;;;16.40;99.90;;;;;;5085946;28;20075;-72
2022/08/23 05:52:51;;;;;;;14.35;11.73;;;16.40;99.90;;;;;;5071925;28;20083;-73
2022/08/23 05:55:16;;;;;;;12.90;11.50;;;16.60;99.90;;;;;;5064193;28;20071;-73
2022/08/23 05:57:42;;;;;;;15.70;13.40;;;16.60;99.90;;;;;;5058460;28;20469;-73
2022/08/23 06:00:12;;;;;;;14.85;13.15;;;16.70;99.90;;;;;;5064392;28;20575;-73
2022/08/23 06:02:37;;;;;;;15.55;13.98;;;16.80;99.90;;;;;;5060000;28;20032;-73
2022/08/23 06:05:04;;;;;;;14.40;12.88;;;16.90;99.90;;;;;;5080071;28;20699;-73
2022/08/23 06:07:32;;;;;;;15.95;12.65;;;17.10;99.90;;;;;;5067592;28;20097;-72
2022/08/23 06:09:57;;;;;;;14.27;12.77;;;17.10;99.90;;;;;;5068359;28;20036;-73
2022/08/23 06:12:24;;;;;;;15.50;13.07;;;17.20;99.90;;;;;;5082333;28;20411;-73
2022/08/23 06:14:49;;;;;;;16.05;12.43;;;17.30;99.90;;;;;;5068334;28;20094;-73
2022/08/23 06:17:15;;;;;;;15.57;12.70;;;17.50;99.90;;;;;;5080126;28;20044;-73
2022/08/23 06:19:41;;;;;;;15.90;12.73;;;17.50;99.90;;;;;;5041383;28;20560;-73
2022/08/23 06:22:06;;;;;;;19.27;12.60;;;17.60;99.90;;;;;;5064706;28;20407;-73
2022/08/23 06:24:32;;;;;;;15.77;12.90;;;17.70;99.90;;;;;;5066736;28;20040;-73
2022/08/23 06:26:58;;;;;;;13.50;12.02;;;17.80;99.90;;;;;;5074119;28;20552;-73
2022/08/23 06:29:24;;;;;;;14.68;11.95;;;17.90;99.90;;;;;;5057158;28;20077;-73
2022/08/23 06:31:51;;;;;;;12.27;10.52;;;18.00;99.90;;;;;;5073181;28;20108;-74
2022/08/23 06:34:36;;;;;;;15.85;11.43;;;18.10;99.90;;;;;;5068009;28;20044;-73
2022/08/23 06:37:08;;;;;;;13.07;10.38;;;18.20;99.90;;;;;;5062907;28;20040;-73
2022/08/23 06:39:34;;;;;;;15.23;11.18;;;18.30;99.90;;;;;;5056601;28;20040;-73
2022/08/23 06:42:04;;;;;;;17.70;10.07;;;18.40;99.90;;;;;;5073898;28;20036;-74
2022/08/23 06:44:31;;;;;;;17.92;10.25;;;18.50;99.90;;;;;;5071333;28;20044;-74
2022/08/23 06:46:57;;;;;;;15.05;8.57;;;18.60;99.90;;;;;;5059137;28;20124;-74
2022/08/23 06:49:23;;;;;;;9.65;8.75;;;18.60;99.90;;;;;;5085791;28;20127;-74
2022/08/23 06:51:51;;;;;;;10.43;8.23;;;18.70;99.90;;;;;;5073059;28;20055;-74
2022/08/23 06:54:20;;;;;;;10.68;8.85;;;18.80;99.90;;;;;;5066467;28;20045;-74
2022/08/23 06:56:48;;;;;;;10.82;8.18;;;18.80;99.90;;;;;;5053363;28;20110;-74
2022/08/23 06:59:14;;;;;;;12.30;8.02;;;18.80;99.90;;;;;;5071100;28;20044;-74
2022/08/23 07:02:07;;;;;;;14.18;7.72;;;18.90;99.90;;;;;;5071328;28;20028;-74
2022/08/23 07:04:38;;;;;;;10.48;7.90;;;18.90;99.90;;;;;;5065047;28;20402;-74
2022/08/23 07:07:05;;;;;;;9.23;7.72;;;19.00;99.90;;;;;;5084549;28;20040;-74
2022/08/23 07:09:31;;;;;;;8.77;7.88;;;19.00;99.90;;;;;;5069876;28;20123;-74
2022/08/23 07:11:58;;;;;;;9.80;7.60;;;19.00;99.90;;;;;;5062088;28;20135;-74
2022/08/23 07:14:24;;;;;;;9.40;7.10;;;19.20;99.90;;;;;;5085002;28;20037;-74
2022/08/23 07:16:58;;;;;;;12.70;7.38;;;19.20;99.90;;;;;;5064019;28;20130;-74
2022/08/23 07:19:26;;;;;;;7.82;6.85;;;19.40;99.90;;;;;;5093245;28;20067;-74
2022/08/23 07:21:52;;;;;;;12.02;6.40;;;19.50;99.90;;;;;;5089942;28;20089;-74
2022/08/23 07:24:19;;;;;;;8.68;6.80;;;19.50;99.90;;;;;;5097073;28;20041;-74
2022/08/23 07:26:47;;;;;;;9.52;6.55;;;19.70;99.90;;;;;;5091569;28;20051;-74
2022/08/23 07:29:14;;;;;;;11.35;6.88;;;19.80;99.90;;;;;;5096099;28;20040;-74
2022/08/23 07:31:44;;;;;;;9.85;7.30;;;19.90;99.90;;;;;;5083277;28;20088;-73
2022/08/23 07:34:10;;;;;;;11.85;6.45;;;20.00;99.90;;;;;;5082434;28;20040;-73
2022/08/23 07:36:37;;;;;;;11.43;6.63;;;20.10;99.90;;;;;;5077882;28;20047;-74
2022/08/23 07:39:05;;;;;;;8.43;6.43;;;20.20;99.90;;;;;;5101461;28;20042;-73
2022/08/23 07:41:31;;;;;;;8.65;6.50;;;20.30;99.90;;;;;;5110142;28;20039;-73
2022/08/23 07:44:00;;;;;;;9.80;6.25;;;20.50;99.90;;;;;;5096149;28;20050;-73
2022/08/23 07:46:26;;;;;;;9.20;6.47;;;20.50;99.90;;;;;;5093231;28;20119;-73
2022/08/23 07:48:52;;;;;;;10.40;7.00;;;20.60;99.90;;;;;;5092708;28;20055;-73
2022/08/23 07:51:18;;;;;;;8.48;6.53;;;20.70;99.90;;;;;;5093615;28;20048;-73
2022/08/23 07:53:44;;;;;;;7.88;6.43;;;20.80;99.90;;;;;;5112374;28;20040;-74
2022/08/23 07:56:13;;;;;;;8.18;6.05;;;20.90;99.90;;;;;;5107102;28;20036;-73
2022/08/23 07:58:40;;;;;;;12.50;6.72;;;21.10;99.90;;;;;;5075365;28;20040;-73
2022/08/23 08:01:17;;;;;;;9.13;7.05;;;21.10;99.90;;;;;;5057215;28;20046;-73
2022/08/23 08:03:44;;;;;;;9.05;6.40;;;21.30;99.90;;;;;;5074200;28;20032;-73
2022/08/23 08:06:13;;;;;;;9.65;6.82;;;21.40;99.90;;;;;;5089566;28;20054;-73
2022/08/23 08:08:40;;;;;;;9.30;6.35;;;21.50;99.90;;;;;;5114718;28;20044;-73
2022/08/23 08:11:07;;;;;;;12.38;6.07;;;21.70;99.90;;;;;;5102954;28;20043;-73
2022/08/23 08:13:36;;;;;;;10.40;6.78;;;21.90;99.90;;;;;;5102048;28;20040;-73
2022/08/23 08:16:02;;;;;;;10.32;6.40;;;22.00;99.90;;;;;;5089083;28;20039;-74
2022/08/23 08:18:28;;;;;;;8.98;6.13;;;22.10;99.90;;;;;;5096342;28;20039;-74
2022/08/23 08:20:55;;;;;;;9.10;6.20;;;22.20;99.90;;;;;;5096556;28;20489;-74
2022/08/23 08:23:21;;;;;;;13.63;6.47;;;22.20;99.90;;;;;;5113568;28;20035;-73
2022/08/23 08:25:46;;;;;;;11.35;5.13;;;22.40;99.90;;;;;;5101791;28;20508;-74
2022/08/23 08:28:12;;;;;;;8.93;6.32;;;22.50;99.90;;;;;;5083668;28;20043;-73
2022/08/23 08:30:38;;;;;;;8.90;5.93;;;22.60;99.90;;;;;;5111971;28;20035;-73
2022/08/23 08:33:04;;;;;;;9.38;5.88;;;22.70;99.90;;;;;;5095682;28;20035;-73
2022/08/23 08:35:30;;;;;;;9.55;5.95;;;22.80;99.90;;;;;;5084713;28;20039;-73
2022/08/23 08:37:56;;;;;;;9.50;5.30;;;23.00;99.90;;;;;;5105570;28;20089;-73
2022/08/23 08:40:35;;;;;;;10.57;5.25;;;23.10;99.90;;;;;;5111277;28;20050;-73
2022/08/23 08:43:15;;;;;;;10.25;5.30;;;23.30;99.90;;;;;;5102039;28;20035;-73
2022/08/23 08:45:59;;;;;;;10.35;6.00;;;23.40;99.90;;;;;;5104406;28;20036;-73
2022/08/23 08:48:28;;;;;;;9.52;5.88;;;23.60;99.90;;;;;;5106362;28;20123;-74
2022/08/23 08:50:58;;;;;;;9.93;5.65;;;23.60;99.90;;;;;;5088375;28;20040;-74
2022/08/23 08:53:35;;;;;;;8.30;4.95;;;23.80;99.90;;;;;;5089653;28;20043;-74
2022/08/23 08:56:22;;;;;;;14.55;5.22;;;23.90;99.90;;;;;;5111624;28;20110;-74
2022/08/23 08:58:51;;;;;;;7.82;4.82;;;24.10;99.90;;;;;;5103183;28;20119;-74
2022/08/23 09:01:20;;;;;;;6.80;4.63;;;24.20;99.90;;;;;;5072473;28;20445;-74
2022/08/23 09:03:47;;;;;;;6.35;4.20;;;24.40;99.90;;;;;;5102161;28;20123;-74
2022/08/23 09:06:21;;;;;;;6.78;4.55;;;24.50;99.90;;;;;;5086301;28;20043;-74
2022/08/23 09:09:17;;;;;;;8.98;4.35;;;24.70;99.90;;;;;;5087317;28;20059;-74
2022/08/23 09:12:05;;;;;;;7.95;4.70;;;24.80;99.90;;;;;;5105103;28;20035;-74
2022/08/23 09:14:57;;;;;;;10.65;5.20;;;24.90;99.90;;;;;;5105588;28;20081;-74
2022/08/23 09:17:50;;;;;;;7.88;4.80;;;25.00;99.90;;;;;;5082721;28;20040;-74
2022/08/23 09:20:19;;;;;;;12.32;5.30;;;25.20;99.90;;;;;;5104747;28;20035;-74
2022/08/23 09:22:50;;;;;;;12.02;5.00;;;25.40;99.90;;;;;;5102444;28;20035;-74
2022/08/23 09:25:17;;;;;;;10.35;5.65;;;25.70;99.90;;;;;;5111699;28;20053;-74
2022/08/23 09:27:43;;;;;;;8.40;5.38;;;25.90;99.90;;;;;;5069765;28;20031;-74
2022/08/23 09:30:15;;;;;;;6.43;4.05;;;26.10;99.90;;;;;;5090225;28;20044;-74
2022/08/23 09:32:44;;;;;;;11.38;3.92;;;26.20;99.90;;;;;;5110040;28;20055;-74
2022/08/23 09:35:11;;;;;;;5.38;4.05;;;26.30;99.90;;;;;;5107638;28;20050;-74
2022/08/23 09:37:53;;;;;;;6.97;4.28;;;26.30;99.90;;;;;;5092227;28;20131;-74
2022/08/23 09:40:24;;;;;;;8.00;4.67;;;26.40;99.90;;;;;;5101605;28;20085;-74
2022/08/23 09:43:17;;;;;;;8.20;3.72;;;26.50;99.90;;;;;;5104860;28;20047;-74
2022/08/23 09:45:48;;;;;;;6.18;2.95;;;26.50;97.50;;;;;;5099957;27;20108;-74
2022/08/23 09:48:34;;;;;;;7.88;2.80;;;26.60;96.80;;;;;;5081083;28;20040;-73
2022/08/23 09:51:16;;;;;;;6.47;3.95;;;26.80;95.10;;;;;;5086874;28;20131;-73
2022/08/23 09:53:48;;;;;;;;;;;26.90;92.40;;;;;;5068715;28;20040;-73
2022/08/23 09:56:23;;;;;;;;;;;27.20;93.60;;;;;;5103924;28;19915;-73
2022/08/23 09:58:52;;;;;;;9.35;3.80;;;27.30;91.90;;;;;;5084108;28;19927;-73
2022/08/23 10:01:34;;;;;;;7.00;3.40;;;27.40;92.70;;;;;;5105795;28;20039;-73
2022/08/23 10:04:36;;;;;;;8.73;3.63;;;27.60;94.40;;;;;;5084196;28;20047;-73
2022/08/23 10:07:27;;;;;;;6.25;2.80;;;27.80;95.10;;;;;;5071786;28;20040;-73
2022/08/23 10:09:53;;;;;;;6.32;3.25;;;28.00;92.80;;;;;;5100107;28;20050;-73
2022/08/23 10:12:19;;;;;;;9.05;3.20;;;28.20;93.50;;;;;;5075746;28;20059;-73
2022/08/23 10:14:45;;;;;;;11.13;3.05;;;28.30;92.70;;;;;;5085934;28;20035;-73
2022/08/23 10:17:35;;;;;;;7.15;3.00;;;28.50;91.10;;;;;;5091747;28;20032;-72
2022/08/23 10:20:24;;;;;;;9.93;2.80;;;28.70;90.30;;;;;;5095544;28;20109;-73
2022/08/23 10:23:17;;;;;;;9.48;2.63;;;28.70;90.40;;;;;;5086734;28;20051;-73
2022/08/23 10:25:56;;;;;;;7.90;2.85;;;28.90;90.70;;;;;;5081767;28;20483;-73
2022/08/23 10:31:49;;;;;;;7.53;2.30;;;29.20;88.30;;;;;;5095406;28;20771;-73
2022/08/23 10:34:29;;;;;;;6.15;2.58;;;29.40;85.30;;;;;;5082070;28;20043;-72
2022/08/23 10:37:13;;;;;;;6.57;2.70;;;29.50;84.80;;;;;;5076373;28;20032;-73
2022/08/23 10:39:46;;;;;;;9.32;2.53;;;29.60;83.50;;;;;;5083222;28;20050;-73
2022/08/23 10:43:07;;;;;;;5.90;2.70;;;29.70;86.00;;;;;;5080102;28;20036;-73
2022/08/23 10:45:38;;;;;;;6.20;2.75;;;29.80;85.00;;;;;;4998651;28;20052;-73
2022/08/23 10:48:13;;;;;;;7.10;2.63;;;29.80;83.10;;;;;;5060249;28;20094;-74
2022/08/23 10:50:49;;;;;;;10.80;2.60;;;29.80;80.50;;;;;;5074437;28;20037;-73
2022/08/23 10:53:17;;;;;;;12.52;2.63;;;30.00;77.80;;;;;;5062577;28;20094;-73
2022/08/23 10:56:06;;;;;;;6.50;2.80;;;30.00;77.30;;;;;;5036473;28;20040;-74
2022/08/23 10:58:54;;;;;;;6.03;3.05;;;30.20;80.80;;;;;;5032755;28;20040;-74
2022/08/23 11:01:44;;;;;;;6.43;3.10;;;30.30;78.30;;;;;;5049013;28;20347;-73
2022/08/23 11:04:33;;;;;;;7.97;3.05;;;30.50;79.60;;;;;;5052034;28;20110;-73
2022/08/23 11:07:13;;;;;;;5.38;2.75;;;30.70;78.20;;;;;;5066219;28;20078;-74
2022/08/23 11:09:47;;;;;;;5.95;2.80;;;30.80;76.50;;;;;;5064553;28;20058;-73
2022/08/23 11:12:28;;;;;;;5.82;2.78;;;31.00;74.40;;;;;;5080343;28;20044;-73
2022/08/23 11:15:07;;;;;;;6.40;2.25;;;31.10;74.00;;;;;;5089665;28;20542;-74
2022/08/23 11:17:48;;;;;;;5.15;2.00;;;31.20;74.00;;;;;;5061871;28;20044;-72
2022/08/23 11:20:49;;;;;;;6.13;2.37;;;31.20;67.80;;;;;;5066240;28;20032;-73
2022/08/23 11:23:30;;;;;;;7.22;2.40;;;31.40;68.50;;;;;;5065574;28;20286;-72
2022/08/23 11:25:55;;;;;;;9.83;3.10;;;31.50;66.00;;;;;;5065522;28;20077;-73
2022/08/23 11:28:24;;;;;;;5.55;2.38;;;31.20;66.70;;;;;;5065830;28;20044;-74
2022/08/23 11:30:56;;;;;;;6.30;2.10;;;30.90;69.90;;;;;;5064037;28;20078;-74
2022/08/23 11:33:35;;;;;;;8.68;2.35;;;30.90;66.00;;;;;;5065445;28;20035;-74
2022/08/23 11:36:07;;;;;;;6.07;2.13;;;30.80;67.50;;;;;;5063596;28;20074;-74
2022/08/23 11:38:48;;;;;;;4.75;1.95;;;30.90;71.00;;;;;;5063994;28;20124;-73
2022/08/23 11:41:34;;;;;;;6.10;2.40;;;30.90;68.70;;;;;;5063824;28;20119;-74
2022/08/23 11:44:03;;;;;;;8.40;2.22;;;31.00;69.50;;;;;;5057367;28;20044;-74
2022/08/23 11:46:34;;;;;;;5.75;1.80;;;31.10;66.60;;;;;;5071040;28;20039;-74
2022/08/23 11:49:27;;;;;;;8.45;1.92;;;31.30;65.70;;;;;;5076446;28;20044;-74
2022/08/23 11:52:17;;;;;;;4.43;1.90;;;31.50;69.70;;;;;;5077188;28;20044;-74
2022/08/23 11:55:11;;;;;;;4.82;2.03;;;31.80;65.00;;;;;;5066224;28;20044;-74
2022/08/23 11:58:01;;;;;;;5.78;1.90;;;31.70;60.70;;;;;;5065905;28;20079;-74
2022/08/23 12:01:07;;;;;;;8.20;2.35;;;31.80;64.30;;;;;;5063452;28;20040;-74
2022/08/23 12:03:54;;;;;;;7.60;2.20;;;31.90;60.70;;;;;;5076678;28;20044;-73
2022/08/23 12:06:32;;;;;;;5.70;2.13;;;32.10;64.00;;;;;;5076829;28;20035;-73
2022/08/23 12:09:00;;;;;;;4.97;2.13;;;32.30;63.40;;;;;;5076730;28;20044;-73
2022/08/23 12:11:54;;;;;;;12.05;2.30;;;32.50;63.70;;;;;;5072173;28;20036;-74
2022/08/23 12:14:40;;;;;;;5.05;2.20;;;32.70;61.80;;;;;;5062348;28;20041;-74
2022/08/23 12:17:12;;;;;;;8.90;2.08;;;32.90;59.10;;;;;;5053124;28;20080;-73
2022/08/23 12:19:56;;;;;;;7.13;2.03;;;33.00;57.70;;;;;;5076438;28;20051;-73
2022/08/23 12:22:29;;;;;;;5.15;2.08;;;33.00;58.00;;;;;;5071557;28;20072;-73
2022/08/23 12:24:57;;;;;;;4.88;1.85;;;33.20;61.30;;;;;;5062682;28;20681;-73
2022/08/23 12:27:35;;;;;;;5.55;1.83;;;33.50;59.60;;;;;;5087477;28;20037;-74
2022/08/23 12:30:07;;;;;;;5.13;1.80;;;33.40;53.70;;;;;;5068243;28;20048;-73
2022/08/23 12:33:01;;;;;;;4.35;1.70;;;33.50;57.70;;;;;;5072759;28;20040;-73
2022/08/23 12:35:45;;;;;;;4.63;1.42;;;33.70;58.10;;;;;;5087283;28;21459;-73
2022/08/23 12:38:26;;;;;;;3.38;1.70;;;33.80;56.70;;;;;;5069158;28;20131;-73
2022/08/23 12:40:53;;;;;;;5.30;1.80;;;33.80;55.90;;;;;;5070081;28;20102;-73
2022/08/23 12:43:22;;;;;;;6.30;1.60;;;33.80;52.40;;;;;;5071450;28;20040;-73
2022/08/23 12:45:57;;;;;;;6.32;1.70;;;33.80;53.20;;;;;;5071848;28;20044;-73
2022/08/23 12:48:26;;;;;;;4.47;1.83;;;33.10;51.50;;;;;;5065460;28;20041;-73
2022/08/23 12:50:57;;;;;;;4.18;1.90;;;32.60;53.50;;;;;;5088262;28;20062;-73
2022/08/23 12:53:41;;;;;;;9.93;1.70;;;31.80;54.40;;;;;;5072920;28;20563;-74
2022/08/23 12:56:28;;;;;;;5.72;1.85;;;31.80;58.40;;;;;;5069455;28;20123;-74
2022/08/23 12:58:58;;;;;;;6.43;2.10;;;31.40;54.20;;;;;;5067346;28;20062;-73
2022/08/23 13:01:30;;;;;;;3.80;1.67;;;31.30;56.50;;;;;;5070908;28;20040;-73
2022/08/23 13:04:16;;;;;;;3.75;1.70;;;31.30;59.70;;;;;;5080330;28;20040;-73
2022/08/23 13:06:54;;;;;;;5.65;2.10;;;31.30;61.30;;;;;;5068523;28;20548;-71
2022/08/23 13:09:31;;;;;;;5.00;1.90;;;31.30;60.10;;;;;;5102537;28;20047;-74
2022/08/23 13:11:58;;;;;;;5.45;2.13;;;31.40;62.40;;;;;;5070834;28;20045;-74
2022/08/23 13:14:41;;;;;;;5.45;2.10;;;31.60;60.50;;;;;;5073949;28;20086;-74
2022/08/23 13:17:31;;;;;;;4.93;1.85;;;31.70;58.00;;;;;;5074736;28;20075;-74